Time,TemperatureF,DewpointF,PressureIn,WindDirection,WindDirectionDegrees,WindSpeedMPH,WindSpeedGustMPH,Humidity,HourlyPrecipIn,Conditions,Clouds,dailyrainin,SoftwareType,DateUTC
2013-01-30 00:11:00,36.0,36.0,30.16,SE,140,9.0,9.0,96,-99.99,,,-99.99,,2013-01-30 05:11:00,
2013-01-30 00:21:00,36.0,36.0,30.16,SE,140,9.0,9.0,96,-99.99,,,-99.99,,2013-01-30 05:21:00,
2013-01-30 00:31:00,36.0,36.0,30.16,SE,140,9.0,9.0,96,-99.99,,,-99.99,,2013-01-30 05:31:00,
2013-01-30 00:42:00,36.0,36.0,30.16,SE,140,9.0,9.0,96,-99.99,,,-99.99,,2013-01-30 05:42:00,
2013-01-30 00:50:00,36.0,35.0,30.15,SE,140,9.0,9.0,97,-99.99,,,-99.99,,2013-01-30 05:50:00,
2013-01-30 01:11:00,36.0,35.0,30.15,SE,140,9.0,9.0,97,-99.99,,,-99.99,,2013-01-30 06:11:00,
2013-01-30 01:21:00,36.0,35.0,30.15,SE,140,9.0,9.0,97,-99.99,,,-99.99,,2013-01-30 06:21:00,
2013-01-30 01:31:00,36.0,35.0,30.15,SE,140,9.0,9.0,97,-99.99,,,-99.99,,2013-01-30 06:31:00,
2013-01-30 01:41:00,36.0,35.0,30.15,SE,140,9.0,9.0,97,-99.99,,,-99.99,,2013-01-30 06:41:00,
2013-01-30 01:50:00,36.0,35.0,30.16,SE,140,7.0,7.0,97,-99.99,,,-99.99,,2013-01-30 06:50:00,
2013-01-30 02:11:00,36.0,35.0,30.16,SE,140,7.0,7.0,97,-99.99,,,-99.99,,2013-01-30 07:11:00,
2013-01-30 02:21:00,36.0,35.0,30.16,SE,140,7.0,7.0,97,-99.99,,,-99.99,,2013-01-30 07:21:00,
2013-01-30 02:31:00,36.0,35.0,30.16,SE,140,7.0,7.0,97,-99.99,,,-99.99,,2013-01-30 07:31:00,
2013-01-30 02:41:00,36.0,35.0,30.16,SE,140,7.0,7.0,97,-99.99,,,-99.99,,2013-01-30 07:41:00,
2013-01-30 02:50:00,37.0,36.0,30.11,SE,140,11.0,13.0,98,-99.99,,,-99.99,,2013-01-30 07:50:00,
2013-01-30 03:11:00,37.0,36.0,30.11,SE,140,11.0,13.0,98,-99.99,,,-99.99,,2013-01-30 08:11:00,
2013-01-30 03:21:00,37.0,36.0,30.11,SE,140,11.0,13.0,98,-99.99,,,-99.99,,2013-01-30 08:21:00,
2013-01-30 03:31:00,37.0,36.0,30.11,SE,140,11.0,13.0,98,-99.99,,,-99.99,,2013-01-30 08:31:00,
2013-01-30 03:41:00,37.0,36.0,30.11,SE,140,11.0,13.0,98,-99.99,,,-99.99,,2013-01-30 08:41:00,
2013-01-30 03:50:00,37.0,37.0,30.09,SE,130,13.0,16.0,97,-99.99,,,-99.99,,2013-01-30 08:50:00,
2013-01-30 04:11:00,37.0,37.0,30.09,SE,130,13.0,16.0,97,-99.99,,,-99.99,,2013-01-30 09:11:00,
2013-01-30 04:21:00,37.0,37.0,30.09,SE,130,13.0,16.0,97,-99.99,,,-99.99,,2013-01-30 09:21:00,
2013-01-30 04:31:00,37.0,37.0,30.09,SE,130,13.0,16.0,97,-99.99,,,-99.99,,2013-01-30 09:31:00,
2013-01-30 04:41:00,37.0,37.0,30.09,SE,130,13.0,16.0,97,-99.99,,,-99.99,,2013-01-30 09:41:00,
2013-01-30 04:50:00,38.0,37.0,30.05,SE,140,13.0,16.0,98,-99.99,,,-99.99,,2013-01-30 09:50:00,
2013-01-30 05:11:00,38.0,37.0,30.05,SE,140,13.0,16.0,98,-99.99,,,-99.99,,2013-01-30 10:11:00,
2013-01-30 05:21:00,38.0,37.0,30.05,SE,140,13.0,16.0,98,-99.99,,,-99.99,,2013-01-30 10:21:00,
2013-01-30 05:31:00,38.0,37.0,30.05,SE,140,13.0,16.0,98,-99.99,,,-99.99,,2013-01-30 10:31:00,
2013-01-30 05:41:00,38.0,37.0,30.05,SE,140,13.0,16.0,98,-99.99,,,-99.99,,2013-01-30 10:41:00,
2013-01-30 05:50:00,38.0,38.0,30.03,SE,140,11.0,11.0,99,-99.99,,,-99.99,,2013-01-30 10:50:00,
2013-01-30 06:11:00,38.0,38.0,30.03,SE,140,11.0,11.0,99,-99.99,,,-99.99,,2013-01-30 11:11:00,
2013-01-30 06:21:00,38.0,38.0,30.03,SE,140,11.0,11.0,99,-99.99,,,-99.99,,2013-01-30 11:21:00,
2013-01-30 06:32:00,38.0,38.0,30.03,SE,140,11.0,11.0,99,-99.99,,,-99.99,,2013-01-30 11:32:00,
2013-01-30 06:41:00,38.0,38.0,30.03,SE,140,11.0,11.0,99,-99.99,,,-99.99,,2013-01-30 11:41:00,
2013-01-30 07:12:00,39.0,38.0,30.03,SSE,160,9.0,11.0,98,-99.99,,,-99.99,,2013-01-30 12:12:00,
2013-01-30 07:21:00,39.0,38.0,30.03,SSE,160,9.0,11.0,98,-99.99,,,-99.99,,2013-01-30 12:21:00,
2013-01-30 07:32:00,39.0,38.0,30.03,SSE,160,9.0,11.0,98,-99.99,,,-99.99,,2013-01-30 12:32:00,
2013-01-30 07:42:00,39.0,38.0,30.03,SSE,160,9.0,11.0,98,-99.99,,,-99.99,,2013-01-30 12:42:00,
2013-01-30 07:50:00,41.0,40.0,30.01,South,180,16.0,16.0,97,-99.99,,,-99.99,,2013-01-30 12:50:00,
2013-01-30 08:12:00,41.0,40.0,30.01,South,180,16.0,16.0,97,-99.99,,,-99.99,,2013-01-30 13:12:00,
2013-01-30 08:22:00,41.0,40.0,30.01,South,180,16.0,16.0,97,-99.99,,,-99.99,,2013-01-30 13:22:00,
2013-01-30 08:31:00,41.0,40.0,30.01,South,180,16.0,16.0,97,-99.99,,,-99.99,,2013-01-30 13:31:00,
2013-01-30 08:42:00,41.0,40.0,30.01,South,180,16.0,16.0,97,-99.99,,,-99.99,,2013-01-30 13:42:00,
2013-01-30 08:50:00,44.0,42.0,29.96,South,180,18.0,22.0,94,-99.99,,,-99.99,,2013-01-30 13:50:00,
2013-01-30 09:11:00,44.0,42.0,29.96,South,180,18.0,22.0,94,-99.99,,,-99.99,,2013-01-30 14:11:00,
2013-01-30 09:21:00,44.0,42.0,29.96,South,180,18.0,22.0,94,-99.99,,,-99.99,,2013-01-30 14:21:00,
2013-01-30 09:31:00,44.0,42.0,29.96,South,180,18.0,22.0,94,-99.99,,,-99.99,,2013-01-30 14:31:00,
2013-01-30 09:41:00,44.0,42.0,29.96,South,180,18.0,22.0,94,-99.99,,,-99.99,,2013-01-30 14:41:00,
2013-01-30 09:50:00,45.0,44.0,29.93,South,190,25.0,29.0,96,-99.99,,,-99.99,,2013-01-30 14:50:00,
2013-01-30 10:11:00,45.0,44.0,29.93,South,190,25.0,29.0,96,-99.99,,,-99.99,,2013-01-30 15:11:00,
2013-01-30 10:22:00,45.0,44.0,29.93,South,190,25.0,29.0,96,-99.99,,,-99.99,,2013-01-30 15:22:00,
2013-01-30 10:31:00,45.0,44.0,29.93,South,190,25.0,29.0,96,-99.99,,,-99.99,,2013-01-30 15:31:00,
2013-01-30 10:42:00,45.0,44.0,29.93,South,190,25.0,29.0,96,-99.99,,,-99.99,,2013-01-30 15:42:00,
2013-01-30 10:50:00,45.0,45.0,29.91,South,180,22.0,27.0,98,-99.99,,,-99.99,,2013-01-30 15:50:00,
2013-01-30 11:11:00,45.0,45.0,29.91,South,180,22.0,27.0,98,-99.99,,,-99.99,,2013-01-30 16:11:00,
2013-01-30 11:21:00,45.0,45.0,29.91,South,180,22.0,27.0,98,-99.99,,,-99.99,,2013-01-30 16:21:00,
2013-01-30 11:31:00,45.0,45.0,29.91,South,180,22.0,27.0,98,-99.99,,,-99.99,,2013-01-30 16:31:00,
2013-01-30 11:41:00,45.0,45.0,29.91,South,180,22.0,27.0,98,-99.99,,,-99.99,,2013-01-30 16:41:00,
2013-01-30 11:50:00,45.0,45.0,29.87,South,190,20.0,22.0,100,-99.99,,,-99.99,,2013-01-30 16:50:00,
2013-01-30 12:11:00,45.0,45.0,29.87,South,190,20.0,22.0,100,-99.99,,,-99.99,,2013-01-30 17:11:00,
2013-01-30 12:21:00,45.0,45.0,29.87,South,190,20.0,22.0,100,-99.99,,,-99.99,,2013-01-30 17:21:00,
2013-01-30 12:31:00,45.0,45.0,29.87,South,190,20.0,22.0,100,-99.99,,,-99.99,,2013-01-30 17:31:00,
2013-01-30 12:41:00,45.0,45.0,29.87,South,190,20.0,22.0,100,-99.99,,,-99.99,,2013-01-30 17:41:00,
2013-01-30 12:50:00,45.0,45.0,29.81,South,190,22.0,25.0,100,-99.99,,,-99.99,,2013-01-30 17:50:00,
2013-01-30 13:11:00,45.0,45.0,29.81,South,190,22.0,25.0,100,-99.99,,,-99.99,,2013-01-30 18:11:00,
2013-01-30 13:21:00,45.0,45.0,29.81,South,190,22.0,25.0,100,-99.99,,,-99.99,,2013-01-30 18:21:00,
2013-01-30 13:32:00,45.0,45.0,29.81,South,190,22.0,25.0,100,-99.99,,,-99.99,,2013-01-30 18:32:00,
2013-01-30 13:42:00,45.0,45.0,29.81,South,190,22.0,25.0,100,-99.99,,,-99.99,,2013-01-30 18:42:00,
2013-01-30 13:50:00,45.0,45.0,29.78,South,190,22.0,25.0,100,-99.99,,,-99.99,,2013-01-30 18:50:00,
2013-01-30 14:11:00,45.0,45.0,29.78,South,190,22.0,25.0,100,-99.99,,,-99.99,,2013-01-30 19:11:00,
2013-01-30 14:21:00,45.0,45.0,29.78,South,190,22.0,25.0,100,-99.99,,,-99.99,,2013-01-30 19:21:00,
2013-01-30 14:31:00,45.0,45.0,29.78,South,190,22.0,25.0,100,-99.99,,,-99.99,,2013-01-30 19:31:00,
2013-01-30 14:42:00,45.0,45.0,29.78,South,190,22.0,25.0,100,-99.99,,,-99.99,,2013-01-30 19:42:00,
2013-01-30 14:50:00,44.0,44.0,29.76,South,190,22.0,27.0,100,-99.99,,,-99.99,,2013-01-30 19:50:00,
2013-01-30 15:11:00,44.0,44.0,29.76,South,190,22.0,27.0,100,-99.99,,,-99.99,,2013-01-30 20:11:00,
2013-01-30 15:21:00,44.0,44.0,29.76,South,190,22.0,27.0,100,-99.99,,,-99.99,,2013-01-30 20:21:00,
2013-01-30 15:32:00,44.0,44.0,29.76,South,190,22.0,27.0,100,-99.99,,,-99.99,,2013-01-30 20:32:00,
2013-01-30 15:41:00,44.0,44.0,29.76,South,190,22.0,27.0,100,-99.99,,,-99.99,,2013-01-30 20:41:00,
2013-01-30 15:50:00,44.0,44.0,29.75,South,190,20.0,22.0,100,-99.99,,,-99.99,,2013-01-30 20:50:00,
2013-01-30 16:11:00,44.0,44.0,29.75,South,190,20.0,22.0,100,-99.99,,,-99.99,,2013-01-30 21:11:00,
2013-01-30 16:21:00,44.0,44.0,29.75,South,190,20.0,22.0,100,-99.99,,,-99.99,,2013-01-30 21:21:00,
2013-01-30 16:31:00,44.0,44.0,29.75,South,190,20.0,22.0,100,-99.99,,,-99.99,,2013-01-30 21:31:00,
2013-01-30 16:41:00,44.0,44.0,29.75,South,190,20.0,22.0,100,-99.99,,,-99.99,,2013-01-30 21:41:00,
2013-01-30 16:50:00,44.0,44.0,29.72,South,190,25.0,29.0,100,-99.99,,,-99.99,,2013-01-30 21:50:00,
2013-01-30 17:11:00,44.0,44.0,29.72,South,190,25.0,29.0,100,-99.99,,,-99.99,,2013-01-30 22:11:00,
2013-01-30 17:21:00,44.0,44.0,29.72,South,190,25.0,29.0,100,-99.99,,,-99.99,,2013-01-30 22:21:00,
2013-01-30 17:31:00,44.0,44.0,29.72,South,190,25.0,29.0,100,-99.99,,,-99.99,,2013-01-30 22:31:00,
2013-01-30 17:41:00,44.0,44.0,29.72,South,190,25.0,29.0,100,-99.99,,,-99.99,,2013-01-30 22:41:00,
2013-01-30 17:50:00,44.0,44.0,29.74,South,190,25.0,27.0,100,-99.99,,,-99.99,,2013-01-30 22:50:00,
2013-01-30 18:11:00,44.0,44.0,29.74,South,190,25.0,27.0,100,-99.99,,,-99.99,,2013-01-30 23:11:00,
2013-01-30 18:21:00,44.0,44.0,29.74,South,190,25.0,27.0,100,-99.99,,,-99.99,,2013-01-30 23:21:00,
2013-01-30 18:32:00,44.0,44.0,29.74,South,190,25.0,27.0,100,-99.99,,,-99.99,,2013-01-30 23:32:00,
2013-01-30 18:42:00,44.0,44.0,29.74,South,190,25.0,27.0,100,-99.99,,,-99.99,,2013-01-30 23:42:00,
2013-01-30 18:50:00,45.0,45.0,29.72,South,190,20.0,22.0,100,-99.99,,,-99.99,,2013-01-30 23:50:00,
2013-01-30 19:21:00,45.0,45.0,29.72,South,190,20.0,22.0,100,-99.99,,,-99.99,,2013-01-31 00:21:00,
2013-01-30 19:31:00,45.0,45.0,29.72,South,190,20.0,22.0,100,-99.99,,,-99.99,,2013-01-31 00:31:00,
2013-01-30 19:41:00,45.0,45.0,29.72,South,190,20.0,22.0,100,-99.99,,,-99.99,,2013-01-31 00:41:00,
2013-01-30 19:50:00,43.0,43.0,29.71,South,190,18.0,20.0,100,-99.99,,,-99.99,,2013-01-31 00:50:00,
2013-01-30 20:11:00,43.0,43.0,29.71,South,190,18.0,20.0,100,-99.99,,,-99.99,,2013-01-31 01:11:00,
2013-01-30 20:21:00,43.0,43.0,29.71,South,190,18.0,20.0,100,-99.99,,,-99.99,,2013-01-31 01:21:00,
2013-01-30 20:31:00,43.0,43.0,29.71,South,190,18.0,20.0,100,-99.99,,,-99.99,,2013-01-31 01:31:00,
2013-01-30 20:41:00,43.0,43.0,29.71,South,190,18.0,20.0,100,-99.99,,,-99.99,,2013-01-31 01:41:00,
2013-01-30 20:50:00,45.0,45.0,29.67,South,190,22.0,27.0,100,-99.99,,,-99.99,,2013-01-31 01:50:00,
2013-01-30 21:11:00,45.0,45.0,29.67,South,190,22.0,27.0,100,-99.99,,,-99.99,,2013-01-31 02:11:00,
2013-01-30 21:21:00,45.0,45.0,29.67,South,190,22.0,27.0,100,-99.99,,,-99.99,,2013-01-31 02:21:00,
2013-01-30 21:31:00,45.0,45.0,29.67,South,190,22.0,27.0,100,-99.99,,,-99.99,,2013-01-31 02:31:00,
2013-01-30 21:41:00,45.0,45.0,29.67,South,190,22.0,27.0,100,-99.99,,,-99.99,,2013-01-31 02:41:00,
2013-01-30 21:50:00,45.0,45.0,29.64,South,190,22.0,27.0,100,-99.99,,,-99.99,,2013-01-31 02:50:00,
2013-01-30 22:11:00,45.0,45.0,29.64,South,190,22.0,27.0,100,-99.99,,,-99.99,,2013-01-31 03:11:00,
2013-01-30 22:21:00,45.0,45.0,29.64,South,190,22.0,27.0,100,-99.99,,,-99.99,,2013-01-31 03:21:00,
2013-01-30 22:31:00,45.0,45.0,29.64,South,190,22.0,27.0,100,-99.99,,,-99.99,,2013-01-31 03:31:00,
2013-01-30 22:41:00,45.0,45.0,29.64,South,190,22.0,27.0,100,-99.99,,,-99.99,,2013-01-31 03:41:00,
2013-01-30 22:50:00,46.0,46.0,29.62,South,190,22.0,27.0,100,-99.99,,,-99.99,,2013-01-31 03:50:00,
2013-01-30 23:11:00,46.0,46.0,29.62,South,190,22.0,27.0,100,-99.99,,,-99.99,,2013-01-31 04:11:00,
2013-01-30 23:21:00,46.0,46.0,29.62,South,190,22.0,27.0,100,-99.99,,,-99.99,,2013-01-31 04:21:00,
2013-01-30 23:31:00,46.0,46.0,29.62,South,190,22.0,27.0,100,-99.99,,,-99.99,,2013-01-31 04:31:00,
2013-01-30 23:41:00,46.0,46.0,29.62,South,190,22.0,27.0,100,-99.99,,,-99.99,,2013-01-31 04:41:00,
2013-01-30 23:50:00,45.0,45.0,29.58,South,190,20.0,25.0,100,-99.99,,,-99.99,,2013-01-31 04:50:00,